createdAt,value
2017-04-21T00:00:44.885Z,53.17
2017-04-21T00:01:44.857Z,52.98
2017-04-21T00:02:44.836Z,53.43
2017-04-21T00:03:44.814Z,53.81
2017-04-21T00:04:44.796Z,53.81
2017-04-21T00:05:44.761Z,53.72
2017-04-21T00:06:44.745Z,53.53
2017-04-21T00:07:44.718Z,53.63
2017-04-21T00:08:45.794Z,53.72
2017-04-21T00:09:44.668Z,53.81
2017-04-21T00:10:44.668Z,53.81
2017-04-21T00:11:44.643Z,53.91
2017-04-21T00:12:44.602Z,53.91
2017-04-21T00:13:44.580Z,54.1
2017-04-21T00:14:44.553Z,54
2017-04-21T00:15:44.536Z,54.19
2017-04-21T00:16:44.507Z,54.19
2017-04-21T00:17:44.487Z,53.91
2017-04-21T00:18:44.465Z,54.1
2017-04-21T00:19:44.579Z,54
2017-04-21T00:20:44.714Z,54.29
2017-04-21T00:21:44.393Z,54.19
2017-04-21T00:22:44.367Z,54.19
2017-04-21T00:23:44.346Z,54.57
2017-04-21T00:24:44.322Z,54.22
2017-04-21T00:25:44.306Z,54.38
2017-04-21T00:26:44.275Z,54.38
2017-04-21T00:27:44.254Z,54.38
2017-04-21T00:28:44.237Z,54.38
2017-04-21T00:29:44.206Z,54.29
2017-04-21T00:30:44.181Z,54.67
2017-04-21T00:31:44.158Z,54.67
2017-04-21T00:32:44.136Z,54.77
2017-04-21T00:33:44.113Z,54.77
2017-04-21T00:34:44.087Z,54.77
2017-04-21T00:35:44.070Z,54.48
2017-04-21T00:36:44.042Z,54.29
2017-04-21T00:37:44.021Z,54.48
2017-04-21T00:38:43.998Z,54.77
2017-04-21T00:39:43.974Z,55.15
2017-04-21T00:40:43.948Z,55.24
2017-04-21T00:41:43.944Z,55.05
2017-04-21T00:42:43.900Z,54.77
2017-04-21T00:43:43.578Z,55.05
2017-04-21T00:44:43.904Z,55.15
2017-04-21T00:45:43.833Z,55.52
2017-04-21T00:46:43.807Z,55.9
2017-04-21T00:47:43.789Z,55.81
2017-04-21T00:48:43.766Z,55.71
2017-04-21T00:49:43.738Z,56.19
2017-04-21T00:50:43.427Z,56.29
2017-04-21T00:51:43.691Z,56.16
2017-04-21T00:52:43.676Z,56.73
2017-04-21T00:53:43.648Z,57.5
2017-04-21T00:54:43.620Z,56.92
2017-04-21T00:55:44.149Z,57.02
2017-04-21T00:56:43.582Z,57.02
2017-04-21T00:57:43.553Z,57.3
2017-04-21T00:58:43.530Z,57.11
2017-04-21T00:59:43.504Z,57.21
2017-04-21T01:00:43.484Z,57.11
2017-04-21T01:01:44.911Z,57.5
2017-04-21T01:02:43.437Z,57.3
2017-04-21T01:03:43.420Z,57.3
2017-04-21T01:04:43.390Z,57.87
2017-04-21T01:05:43.368Z,57.97
2017-04-21T01:06:43.339Z,57.68
2017-04-21T01:07:43.332Z,57.97
2017-04-21T01:08:43.294Z,57.87
2017-04-21T01:09:43.272Z,58.44
2017-04-21T01:10:43.251Z,57.87
2017-04-21T01:11:43.377Z,57.78
2017-04-21T01:12:43.208Z,58.35
2017-04-21T01:13:43.174Z,58.25
2017-04-21T01:14:43.368Z,58.25
2017-04-21T01:15:43.128Z,58.16
2017-04-21T01:16:43.108Z,58.44
2017-04-21T01:17:43.083Z,58.25
2017-04-21T01:18:43.069Z,58.35
2017-04-21T01:19:43.034Z,58.35
2017-04-21T01:20:43.008Z,58.25
2017-04-21T01:21:42.986Z,58.16
2017-04-21T01:22:42.965Z,58.25
2017-04-21T01:23:42.994Z,57.97
2017-04-21T01:24:42.926Z,57.87
2017-04-21T01:25:42.904Z,57.97
2017-04-21T01:26:42.868Z,57.78
2017-04-21T01:27:42.850Z,58.06
2017-04-21T01:28:42.827Z,58.16
2017-04-21T01:29:42.800Z,58.35
2017-04-21T01:30:42.774Z,57.87
2017-04-21T01:31:42.754Z,58.16
2017-04-21T01:32:42.728Z,58.16
2017-04-21T01:33:42.709Z,58.06
2017-04-21T01:34:42.682Z,58.06
2017-04-21T01:35:42.657Z,57.97
2017-04-21T01:36:42.645Z,57.87
2017-04-21T01:37:42.611Z,57.5
2017-04-21T01:38:42.589Z,57.97
2017-04-21T01:39:42.565Z,57.78
2017-04-21T01:40:42.542Z,57.87
2017-04-21T01:41:42.522Z,57.87
2017-04-21T01:42:42.652Z,57.5
2017-04-21T01:43:42.471Z,57.97
2017-04-21T01:44:42.454Z,57.68
2017-04-21T01:45:42.423Z,57.87
2017-04-21T01:46:42.402Z,57.5
2017-04-21T01:47:42.389Z,57.5
2017-04-21T01:48:42.353Z,57.87
2017-04-21T01:49:42.328Z,57.68
2017-04-21T01:50:42.521Z,57.5
2017-04-21T01:51:42.387Z,57.87
2017-04-21T01:52:42.261Z,57.78
2017-04-21T01:53:42.239Z,57.87
2017-04-21T01:54:42.208Z,57.59
2017-04-21T01:55:42.190Z,57.59
2017-04-21T01:56:42.171Z,58.16
2017-04-21T01:57:42.141Z,57.87
2017-04-21T01:58:42.117Z,57.97
2017-04-21T01:59:42.094Z,58.06
2017-04-21T02:00:42.072Z,58.35
2017-04-21T02:01:42.042Z,58.54
2017-04-21T02:02:42.020Z,58.54
2017-04-21T02:03:41.995Z,58.92
2017-04-21T02:04:41.976Z,58.54
2017-04-21T02:05:41.948Z,58.35
2017-04-21T02:06:41.929Z,58.44
2017-04-21T02:07:41.902Z,58.35
2017-04-21T02:08:41.877Z,58.44
2017-04-21T02:09:41.857Z,59.01
2017-04-21T02:10:41.877Z,58.83
2017-04-21T02:11:41.809Z,58.92
2017-04-21T02:12:41.784Z,59.3
2017-04-21T02:13:41.757Z,59.2
2017-04-21T02:14:41.735Z,59.2
2017-04-21T02:15:41.406Z,59.2
2017-04-21T02:16:41.681Z,59.2
2017-04-21T02:17:41.664Z,59.39
2017-04-21T02:18:41.638Z,59.2
2017-04-21T02:19:41.612Z,59.2
2017-04-21T02:20:41.590Z,59.11
2017-04-21T02:21:41.567Z,59.3
2017-04-21T02:22:41.542Z,59.01
2017-04-21T02:23:41.519Z,59.11
2017-04-21T02:24:41.499Z,59.58
2017-04-21T02:25:41.502Z,59.11
2017-04-21T02:26:41.461Z,59.58
2017-04-21T02:27:41.424Z,59.77
2017-04-21T02:28:41.400Z,59.77
2017-04-21T02:29:41.377Z,59.49
2017-04-21T02:30:41.356Z,59.49
2017-04-21T02:31:41.339Z,60.06
2017-04-21T02:32:41.310Z,59.96
2017-04-21T02:33:41.287Z,59.77
2017-04-21T02:34:41.261Z,60.16
2017-04-21T02:35:41.244Z,60.35
2017-04-21T02:36:41.211Z,60.16
2017-04-21T02:37:41.191Z,60.53
2017-04-21T02:38:41.165Z,60.44
2017-04-21T02:39:41.145Z,60.72
2017-04-21T02:40:41.118Z,60.44
2017-04-21T02:41:41.093Z,60.53
2017-04-21T02:42:41.073Z,60.63
2017-04-21T02:43:41.048Z,60.25
2017-04-21T02:44:41.020Z,60.35
2017-04-21T02:45:41.013Z,60.25
2017-04-21T02:46:40.983Z,60.44
2017-04-21T02:47:40.952Z,60.16
2017-04-21T02:48:40.928Z,60.35
2017-04-21T02:49:40.903Z,60.53
2017-04-21T02:50:40.882Z,60.44
2017-04-21T02:51:40.859Z,60.63
2017-04-21T02:52:40.834Z,60.25
2017-04-21T02:53:40.810Z,60.82
2017-04-21T02:54:40.785Z,60.44
2017-04-21T02:55:40.762Z,60.53
2017-04-21T02:56:40.736Z,60.53
2017-04-21T02:57:40.722Z,60.44
2017-04-21T02:58:40.692Z,60.35
2017-04-21T02:59:40.665Z,60.82
2017-04-21T03:00:40.645Z,60.82
2017-04-21T03:01:40.623Z,60.63
2017-04-21T03:02:40.606Z,60.72
2017-04-21T03:03:40.571Z,60.91
2017-04-21T03:04:40.556Z,60.63
2017-04-21T03:05:40.534Z,61.1
2017-04-21T03:06:40.502Z,61.1
2017-04-21T03:07:40.501Z,61.29
2017-04-21T03:08:40.458Z,61.1
2017-04-21T03:09:41.935Z,61.2
2017-04-21T03:10:40.408Z,61.39
2017-04-21T03:11:40.389Z,61.01
2017-04-21T03:12:40.362Z,61.39
2017-04-21T03:13:40.352Z,60.63
2017-04-21T03:14:40.318Z,60.72
2017-04-21T03:15:40.291Z,60.82
2017-04-21T03:16:40.268Z,61.58
2017-04-21T03:17:40.749Z,61.39
2017-04-21T03:18:40.222Z,60.82
2017-04-21T03:19:40.199Z,61.29
2017-04-21T03:20:40.175Z,61.1
2017-04-21T03:21:40.159Z,61.2
2017-04-21T03:22:40.125Z,61.2
2017-04-21T03:23:40.124Z,60.91
2017-04-21T03:24:40.079Z,61.1
2017-04-21T03:25:40.853Z,61.01
2017-04-21T03:26:40.029Z,60.72
2017-04-21T03:27:40.005Z,60.72
2017-04-21T03:28:39.987Z,61.48
2017-04-21T03:29:39.958Z,61.39
2017-04-21T03:30:39.938Z,61.01
2017-04-21T03:31:39.908Z,61.29
2017-04-21T03:32:40.009Z,61.48
2017-04-21T03:33:39.862Z,61.2
2017-04-21T03:34:39.844Z,61.2
2017-04-21T03:35:39.821Z,61.39
2017-04-21T03:36:39.848Z,61.29
2017-04-21T03:37:39.785Z,61.48
2017-04-21T03:38:39.741Z,61.39
2017-04-21T03:39:39.722Z,61.29
2017-04-21T03:40:39.701Z,61.77
2017-04-21T03:41:39.675Z,62.15
2017-04-21T03:42:39.657Z,61.48
2017-04-21T03:43:39.650Z,61.87
2017-04-21T03:44:39.658Z,61.87
2017-04-21T03:45:39.585Z,61.87
2017-04-21T03:46:39.555Z,61.87
2017-04-21T03:47:39.540Z,61.58
2017-04-21T03:48:39.508Z,61.48
2017-04-21T03:49:39.525Z,61.58
2017-04-21T03:50:39.461Z,61.87
2017-04-21T03:51:39.734Z,61.68
2017-04-21T03:52:39.418Z,61.58
2017-04-21T03:53:39.401Z,61.48
2017-04-21T03:54:39.371Z,61.68
2017-04-21T03:55:39.347Z,61.96
2017-04-21T03:56:39.320Z,62.05
2017-04-21T03:57:39.436Z,61.96
2017-04-21T03:58:39.274Z,62.34
2017-04-21T03:59:39.252Z,62.15
2017-04-21T04:00:39.227Z,62.15
2017-04-21T04:01:39.205Z,61.96
2017-04-21T04:02:39.180Z,61.77
2017-04-21T04:03:39.162Z,62.15
2017-04-21T04:04:39.136Z,62.24
2017-04-21T04:05:39.119Z,62.05
2017-04-21T04:06:39.085Z,62.05
2017-04-21T04:07:39.280Z,62.24
2017-04-21T04:08:39.037Z,62.34
2017-04-21T04:09:39.017Z,62.24
2017-04-21T04:10:38.995Z,61.96
2017-04-21T04:11:38.971Z,61.87
2017-04-21T04:12:38.946Z,62.15
2017-04-21T04:13:38.922Z,62.05
2017-04-21T04:14:38.896Z,61.87
2017-04-21T04:15:38.880Z,62.24
2017-04-21T04:16:38.854Z,62.24
2017-04-21T04:17:38.529Z,62.34
2017-04-21T04:18:38.807Z,62.05
2017-04-21T04:19:38.778Z,61.87
2017-04-21T04:20:38.758Z,62.15
2017-04-21T04:21:38.733Z,61.87
2017-04-21T04:22:38.712Z,61.39
2017-04-21T04:23:38.687Z,61.68
2017-04-21T04:24:38.661Z,61.58
2017-04-21T04:25:38.636Z,61.58
2017-04-21T04:26:38.615Z,61.58
2017-04-21T04:27:38.590Z,61.96
2017-04-21T04:28:38.575Z,62.15
2017-04-21T04:29:38.546Z,62.24
2017-04-21T04:30:38.522Z,62.24
2017-04-21T04:31:38.495Z,62.34
2017-04-21T04:32:38.474Z,62.24
2017-04-21T04:33:38.449Z,62.34
2017-04-21T04:34:38.427Z,61.87
2017-04-21T04:35:38.402Z,62.15
2017-04-21T04:36:38.387Z,62.15
2017-04-21T04:37:38.354Z,62.24
2017-04-21T04:38:38.382Z,61.96
2017-04-21T04:39:38.309Z,62.24
2017-04-21T04:40:38.445Z,61.77
2017-04-21T04:41:38.262Z,62.43
2017-04-21T04:42:38.240Z,62.53
2017-04-21T04:43:38.217Z,62.81
2017-04-21T04:44:38.190Z,62.53
2017-04-21T04:45:38.166Z,63.29
2017-04-21T04:46:38.145Z,63.86
2017-04-21T04:47:38.129Z,64.24
2017-04-21T04:48:38.143Z,63.86
2017-04-21T04:49:38.074Z,64.05
2017-04-21T04:50:38.051Z,64.05
2017-04-21T04:51:38.033Z,64.05
2017-04-21T04:52:38.003Z,64.34
2017-04-21T04:53:37.975Z,64.9
2017-04-21T04:54:37.953Z,64.62
2017-04-21T04:55:37.932Z,65.28
2017-04-21T04:56:37.930Z,64.81
2017-04-21T04:57:37.881Z,65.47
2017-04-21T04:58:37.863Z,65.38
2017-04-21T04:59:37.836Z,65.67
2017-04-21T05:00:37.811Z,65.95
2017-04-21T05:01:37.789Z,65.86
2017-04-21T05:02:37.772Z,65.86
2017-04-21T05:03:37.740Z,66.52
2017-04-21T05:04:37.718Z,66.61
2017-04-21T05:05:37.692Z,66.61
2017-04-21T05:06:37.673Z,66.9
2017-04-21T05:07:37.648Z,66.8
2017-04-21T05:08:37.624Z,66.9
2017-04-21T05:09:37.599Z,67.66
2017-04-21T05:10:37.574Z,67.76
2017-04-21T05:11:37.550Z,67.47
2017-04-21T05:12:37.580Z,67.57
2017-04-21T05:13:37.505Z,67.94
2017-04-21T05:14:37.485Z,68.13
2017-04-21T05:15:37.204Z,67.66
2017-04-21T05:16:37.433Z,68.04
2017-04-21T05:17:37.408Z,67.66
2017-04-21T05:18:37.383Z,68.42
2017-04-21T05:19:37.359Z,68.04
2017-04-21T05:20:37.335Z,68.23
2017-04-21T05:21:37.311Z,68.42
2017-04-21T05:22:37.300Z,68.61
2017-04-21T05:23:37.267Z,68.33
2017-04-21T05:24:37.241Z,68.04
2017-04-21T05:25:37.218Z,68.23
2017-04-21T05:26:37.196Z,67.85
2017-04-21T05:27:37.175Z,67.66
2017-04-21T05:28:37.145Z,67.94
2017-04-21T05:29:37.133Z,67.94
2017-04-21T05:30:37.154Z,67.94
2017-04-21T05:31:37.534Z,68.04
2017-04-21T05:32:37.053Z,67.57
2017-04-21T05:33:37.032Z,67.19
2017-04-21T05:34:37.004Z,67.76
2017-04-21T05:35:36.982Z,67.28
2017-04-21T05:36:36.955Z,67.28
2017-04-21T05:37:36.942Z,67.47
2017-04-21T05:38:36.966Z,67.76
2017-04-21T05:39:36.887Z,67.28
2017-04-21T05:40:36.867Z,67.66
2017-04-21T05:41:36.840Z,67.38
2017-04-21T05:42:36.827Z,67.19
2017-04-21T05:43:36.794Z,67.6
2017-04-21T05:44:36.771Z,67.41
2017-04-21T05:45:36.743Z,66.71
2017-04-21T05:46:36.721Z,66.94
2017-04-21T05:47:36.697Z,67.03
2017-04-21T05:48:36.906Z,66.84
2017-04-21T05:49:36.651Z,66.84
2017-04-21T05:50:36.639Z,67.13
2017-04-21T05:51:36.605Z,66.74
2017-04-21T05:52:36.579Z,66.65
2017-04-21T05:53:36.553Z,66.94
2017-04-21T05:54:36.537Z,66.65
2017-04-21T05:55:36.506Z,66.65
2017-04-21T05:56:36.570Z,66.46
2017-04-21T05:57:36.164Z,66.17
2017-04-21T05:58:36.442Z,66.17
2017-04-21T05:59:36.416Z,66.36
2017-04-21T06:00:36.102Z,65.89
2017-04-21T06:01:36.368Z,65.89
2017-04-21T06:02:36.347Z,65.51
2017-04-21T06:03:36.375Z,66.08
2017-04-21T06:04:36.347Z,65.7
2017-04-21T06:05:36.278Z,65.41
2017-04-21T06:06:36.252Z,65.22
2017-04-21T06:07:36.235Z,65.41
2017-04-21T06:08:36.203Z,65.13
2017-04-21T06:09:36.178Z,65.22
2017-04-21T06:10:36.163Z,65.22
2017-04-21T06:11:36.131Z,64.46
2017-04-21T06:12:36.113Z,64.56
2017-04-21T06:13:36.098Z,64.78
2017-04-21T06:14:36.068Z,64.21
2017-04-21T06:15:36.046Z,63.99
2017-04-21T06:16:36.022Z,63.89
2017-04-21T06:17:36.248Z,64.18
2017-04-21T06:18:35.974Z,64.21
2017-04-21T06:19:35.950Z,64.4
2017-04-21T06:20:35.935Z,63.83
2017-04-21T06:21:35.907Z,64.21
2017-04-21T06:22:35.884Z,63.73
2017-04-21T06:23:35.857Z,63.35
2017-04-21T06:24:35.834Z,63.45
2017-04-21T06:25:35.864Z,63.17
2017-04-21T06:26:35.789Z,62.49
2017-04-21T06:27:35.762Z,62.88
2017-04-21T06:28:35.745Z,63.17
2017-04-21T06:29:35.723Z,62.3
2017-04-21T06:30:35.696Z,62.49
2017-04-21T06:31:35.677Z,62.49
2017-04-21T06:32:35.657Z,62.02
2017-04-21T06:33:35.633Z,61.93
2017-04-21T06:34:35.605Z,62.02
2017-04-21T06:35:35.579Z,61.83
2017-04-21T06:36:35.559Z,61.93
2017-04-21T06:37:35.535Z,61.35
2017-04-21T06:38:35.512Z,61.16
2017-04-21T06:39:35.496Z,61.77
2017-04-21T06:40:35.468Z,60.69
2017-04-21T06:41:35.443Z,60.97
2017-04-21T06:42:35.372Z,61.48
2017-04-21T06:43:35.398Z,61
2017-04-21T06:44:35.384Z,60.72
2017-04-21T06:45:35.052Z,60.53
2017-04-21T06:46:35.329Z,60.53
2017-04-21T06:47:35.358Z,60.44
2017-04-21T06:48:35.289Z,59.96
2017-04-21T06:49:35.259Z,60.05
2017-04-21T06:50:35.240Z,59.29
2017-04-21T06:51:35.221Z,59.42
2017-04-21T06:52:35.195Z,59.13
2017-04-21T06:53:35.174Z,59.13
2017-04-21T06:54:35.148Z,58.84
2017-04-21T06:55:35.229Z,58.75
2017-04-21T06:56:35.107Z,58.37
2017-04-21T06:57:35.088Z,58.47
2017-04-21T06:58:35.063Z,57.7
2017-04-21T06:59:35.037Z,58.08
2017-04-21T07:00:35.022Z,57.7
2017-04-21T07:01:35.044Z,57.42
2017-04-21T07:02:34.982Z,57.51
2017-04-21T07:03:34.952Z,57.42
2017-04-21T07:04:35.181Z,57.89
2017-04-21T07:05:34.909Z,57.51
2017-04-21T07:06:34.882Z,57.42
2017-04-21T07:07:34.875Z,57.32
2017-04-21T07:08:34.838Z,57.6
2017-04-21T07:09:34.817Z,57.32
2017-04-21T07:10:34.793Z,57.6
2017-04-21T07:11:34.826Z,57.23
2017-04-21T07:12:34.773Z,57.32
2017-04-21T07:13:34.728Z,57.7
2017-04-21T07:14:34.701Z,57.32
2017-04-21T07:15:34.681Z,57.42
2017-04-21T07:16:34.965Z,57.32
2017-04-21T07:17:34.634Z,57.8
2017-04-21T07:18:34.618Z,57.8
2017-04-21T07:19:34.595Z,57.42
2017-04-21T07:20:34.571Z,57.7
2017-04-21T07:21:34.548Z,57.42
2017-04-21T07:22:34.527Z,57.51
2017-04-21T07:23:34.508Z,57.51
2017-04-21T07:24:34.488Z,57.42
2017-04-21T07:25:34.462Z,57.51
2017-04-21T07:26:34.438Z,57.32
2017-04-21T07:27:34.415Z,57.51
2017-04-21T07:28:34.398Z,57.13
2017-04-21T07:29:34.375Z,57.32
2017-04-21T07:30:34.411Z,57.6
2017-04-21T07:31:34.324Z,57.23
2017-04-21T07:32:34.310Z,57.23
2017-04-21T07:33:34.284Z,57.51
2017-04-21T07:34:34.261Z,57.42
2017-04-21T07:36:03.989Z,57.13
2017-04-21T07:36:33.959Z,57.16
2017-04-21T07:37:34.195Z,57.64
2017-04-21T07:38:34.170Z,57.04
2017-04-21T07:39:34.148Z,57.35
2017-04-21T07:40:34.130Z,57.54
2017-04-21T07:41:34.102Z,56.87
2017-04-21T07:42:34.082Z,56.97
2017-04-21T07:43:34.066Z,56.49
2017-04-21T07:44:34.039Z,56.87
2017-04-21T07:45:34.017Z,56.78
2017-04-21T07:46:34.000Z,56.49
2017-04-21T07:47:33.974Z,56.4
2017-04-21T07:48:33.948Z,56.59
2017-04-21T07:49:33.630Z,56.3
2017-04-21T07:50:33.902Z,56.11
2017-04-21T07:51:33.883Z,56.11
2017-04-21T07:52:33.861Z,55.92
2017-04-21T07:53:33.840Z,56.02
2017-04-21T07:54:33.817Z,55.83
2017-04-21T07:55:33.803Z,55.83
2017-04-21T07:56:33.768Z,55.73
2017-04-21T07:57:33.794Z,55.63
2017-04-21T07:58:33.731Z,56.02
2017-04-21T07:59:33.708Z,55.83
2017-04-21T08:01:22.562Z,55.57
2017-04-21T08:01:33.660Z,55.85
2017-04-21T08:02:33.642Z,55.76
2017-04-21T08:03:33.620Z,55.28
2017-04-21T08:04:33.595Z,55.57
2017-04-21T08:05:33.577Z,55.09
2017-04-21T08:06:33.555Z,55.47
2017-04-21T08:07:33.540Z,55.19
2017-04-21T08:08:33.510Z,55.09
2017-04-21T08:09:33.488Z,54.71
2017-04-21T08:10:33.473Z,54.83
2017-04-21T08:11:33.445Z,55.12
2017-04-21T08:12:33.422Z,54.26
2017-04-21T08:13:33.399Z,53.43
2017-04-21T08:14:33.435Z,53.53
2017-04-21T08:15:33.358Z,53.33
2017-04-21T08:16:33.339Z,53.05
2017-04-21T08:17:33.318Z,52.88
2017-04-21T08:18:33.301Z,53.17
2017-04-21T08:19:33.274Z,52.5
2017-04-21T08:20:32.954Z,52.03
2017-04-21T08:21:33.406Z,52.12
2017-04-21T08:22:33.217Z,52.31
2017-04-21T08:23:33.193Z,52.4
2017-04-21T08:24:33.171Z,52.34
2017-04-21T08:25:33.155Z,50.74
2017-04-21T08:26:33.135Z,50.09
2017-04-21T08:27:33.114Z,49.45
2017-04-21T08:28:33.097Z,48.59
2017-04-21T08:29:33.071Z,48.13
2017-04-21T08:30:33.052Z,47.3
2017-04-21T08:31:33.032Z,47.3
2017-04-21T08:32:33.014Z,47.01
2017-04-21T08:33:32.997Z,47.11
2017-04-21T08:34:32.978Z,46.82
2017-04-21T08:35:32.976Z,46.65
2017-04-21T08:36:32.945Z,45.9
2017-04-21T08:37:32.920Z,45.52
2017-04-21T08:38:33.305Z,45.43
2017-04-21T08:39:32.933Z,46.22
2017-04-21T08:40:32.568Z,45.64
2017-04-21T08:41:32.866Z,45.64
2017-04-21T08:42:32.836Z,45.18
2017-04-21T08:43:32.820Z,44.92
2017-04-21T08:44:32.799Z,44.34
2017-04-21T08:45:33.026Z,43.6
2017-04-21T08:46:32.771Z,43.02
2017-04-21T08:47:32.747Z,42.56
2017-04-21T08:48:32.738Z,41.62
2017-04-21T08:49:32.728Z,41.64
2017-04-21T08:50:32.704Z,41.16
2017-04-21T08:51:32.685Z,41.16
2017-04-21T08:52:32.671Z,42
2017-04-21T08:53:32.652Z,42.85
2017-04-21T08:54:32.642Z,43.23
2017-04-21T08:55:32.634Z,43.6
2017-04-21T08:56:32.608Z,43.88
2017-04-21T08:57:32.597Z,43.4
2017-04-21T08:58:32.583Z,43.33
2017-04-21T08:59:32.568Z,43.5
2017-04-21T09:00:32.551Z,43.52
2017-04-21T09:01:32.538Z,42.85
2017-04-21T09:02:32.224Z,42.94
2017-04-21T09:03:32.506Z,42.56
2017-04-21T09:04:32.496Z,42.39
2017-04-21T09:05:32.480Z,41.91
2017-04-21T09:06:32.165Z,41.74
2017-04-21T09:07:32.453Z,41.35
2017-04-21T09:08:32.133Z,41.08
2017-04-21T09:09:32.425Z,40.99
2017-04-21T09:10:32.462Z,40.97
2017-04-21T09:11:32.398Z,41.35
2017-04-21T09:12:32.379Z,41.35
2017-04-21T09:13:32.368Z,40.89
2017-04-21T09:14:32.356Z,40.89
2017-04-21T09:15:32.345Z,39.95
2017-04-21T09:16:32.324Z,39.39
2017-04-21T09:17:32.325Z,39.39
2017-04-21T09:18:32.304Z,39.29
2017-04-21T09:19:32.290Z,39.01
2017-04-21T09:20:32.279Z,39.11
2017-04-21T09:21:32.258Z,38.91
2017-04-21T09:22:32.255Z,39.11
2017-04-21T09:23:32.240Z,38.72
2017-04-21T09:24:32.227Z,38.81
2017-04-21T09:25:32.207Z,38.62
2017-04-21T09:26:32.200Z,38.91
2017-04-21T09:27:31.885Z,39.01
2017-04-21T09:28:32.174Z,38.64
2017-04-21T09:29:31.856Z,38.35
2017-04-21T09:30:32.155Z,37.96
2017-04-21T09:31:32.240Z,37.6
2017-04-21T09:33:58.018Z,37.6
2017-04-21T09:36:20.017Z,37.41
2017-04-21T09:36:40.883Z,37.23
2017-04-21T09:37:51.876Z,37.23
2017-04-21T09:38:41.073Z,36.83
2017-04-21T09:39:41.012Z,36.73
2017-04-21T09:40:40.998Z,37.19
2017-04-21T09:41:40.684Z,37.56
2017-04-21T09:42:43.975Z,38.33
2017-04-21T09:44:19.056Z,39.09
2017-04-21T09:45:19.033Z,39.36
2017-04-21T09:46:19.020Z,39.54
2017-04-21T09:47:19.010Z,39.16
2017-04-21T09:48:20.247Z,39.45
2017-04-21T09:49:18.982Z,39.83
2017-04-21T09:50:24.128Z,39.83
2017-04-21T09:51:18.952Z,39.54
2017-04-21T09:57:28.276Z,40.22
2017-04-21T10:07:36.928Z,43.14
2017-04-21T10:09:05.482Z,43.48
2017-04-21T10:10:05.465Z,43.67
2017-04-21T10:11:05.449Z,44.24
2017-04-21T10:12:05.432Z,44.54
2017-04-21T10:13:05.415Z,44.8
2017-04-21T10:14:05.428Z,45.57
2017-04-21T10:15:05.499Z,45.47
2017-04-21T10:16:05.376Z,46.24
2017-04-21T10:17:05.352Z,45.95
2017-04-21T10:18:05.343Z,46.24
2017-04-21T10:19:05.320Z,46.43
2017-04-21T10:20:05.308Z,46.53
2017-04-21T10:21:05.289Z,46.89
2017-04-21T10:22:05.271Z,46.89
2017-04-21T10:23:05.423Z,47.37
2017-04-21T10:24:05.501Z,47.37
2017-04-21T10:25:05.224Z,47.85
2017-04-21T10:26:05.203Z,48.23
2017-04-21T10:27:05.186Z,48.4
2017-04-21T10:28:05.165Z,48.69
2017-04-21T10:29:05.158Z,48.78
2017-04-21T10:30:05.136Z,48.88
2017-04-21T10:31:05.173Z,48.97
2017-04-21T10:32:05.113Z,48.97
2017-04-21T10:33:04.782Z,48.8
2017-04-21T10:34:05.066Z,48.8
2017-04-21T10:35:05.053Z,48.8
2017-04-21T10:36:05.035Z,48.9
2017-04-21T10:37:05.011Z,48.71
2017-04-21T10:38:05.000Z,48.71
2017-04-21T10:39:05.028Z,48.71
2017-04-21T10:40:04.965Z,48.71
2017-04-21T10:41:04.942Z,48.9
2017-04-21T10:42:04.940Z,49
2017-04-21T10:43:04.606Z,49.29
2017-04-21T10:44:04.895Z,49.19
2017-04-21T10:45:04.872Z,49
2017-04-21T10:46:04.859Z,48.9
2017-04-21T10:47:04.839Z,49.29
2017-04-21T10:48:04.828Z,49.19
2017-04-21T10:49:04.811Z,49.29
2017-04-21T10:50:04.786Z,49.57
2017-04-21T10:51:04.767Z,49.48
2017-04-21T10:52:04.750Z,50.05
2017-04-21T10:53:04.788Z,49.86
2017-04-21T10:54:04.715Z,49.96
2017-04-21T10:55:04.397Z,49.67
2017-04-21T10:56:04.679Z,49.96
2017-04-21T10:57:04.356Z,49.48
2017-04-21T10:58:04.647Z,49.57
2017-04-21T10:59:04.625Z,49.86
2017-04-21T11:00:04.606Z,49.76
2017-04-21T11:01:04.289Z,49.86
2017-04-21T11:02:04.568Z,50.43
2017-04-21T11:03:04.554Z,50.24
2017-04-21T11:04:04.540Z,50.22
2017-04-21T11:05:04.520Z,50.12
2017-04-21T11:06:04.503Z,50.6
2017-04-21T11:07:04.484Z,50.41
2017-04-21T11:08:04.519Z,50.32
2017-04-21T11:09:04.462Z,50.99
2017-04-21T11:10:04.426Z,50.89
2017-04-21T11:11:04.416Z,50.89
2017-04-21T11:12:04.449Z,50.99
2017-04-21T11:13:04.366Z,50.79
2017-04-21T11:14:04.362Z,50.89
2017-04-21T11:15:04.448Z,51.85
2017-04-21T11:16:04.317Z,51.56
2017-04-21T11:17:04.300Z,51.65
2017-04-21T11:18:04.285Z,51.85
2017-04-21T11:19:04.263Z,52.3
2017-04-21T11:20:04.262Z,52.4
2017-04-21T11:21:04.236Z,52.78
2017-04-21T11:22:04.226Z,53.16
2017-04-21T11:23:04.182Z,53.55
2017-04-21T11:24:04.172Z,53.81
2017-04-21T11:25:04.199Z,53.91
2017-04-21T11:26:04.135Z,54.38
2017-04-21T11:27:04.106Z,55.05
2017-04-21T11:28:04.700Z,54.86
2017-04-21T11:29:04.069Z,55.44
2017-04-21T11:30:04.050Z,55.34
2017-04-21T11:31:04.046Z,55.31
2017-04-21T11:32:04.011Z,55.51
2017-04-21T11:33:03.994Z,56.17
2017-04-21T11:34:03.667Z,56.08
2017-04-21T11:35:03.960Z,56.46
2017-04-21T11:36:03.637Z,56.27
2017-04-21T11:37:03.910Z,55.88
2017-04-21T11:38:03.894Z,56.08
2017-04-21T11:39:03.879Z,56.56
2017-04-21T11:40:03.854Z,56.46
2017-04-21T11:41:03.839Z,56.37
2017-04-21T11:42:03.809Z,56.08
2017-04-21T11:43:03.796Z,56.17
2017-04-21T11:44:03.782Z,56.37
2017-04-21T11:45:03.451Z,56.65
2017-04-21T11:46:03.733Z,57.04
2017-04-21T11:47:03.715Z,57.42
2017-04-21T11:48:03.694Z,57.32
2017-04-21T11:49:03.675Z,57.68
2017-04-21T11:50:03.653Z,58.15
2017-04-21T11:51:03.639Z,57.61
2017-04-21T11:52:03.611Z,57.77
2017-04-21T11:53:03.596Z,57.58
2017-04-21T11:54:03.776Z,57.48
2017-04-21T11:55:03.556Z,57.68
2017-04-21T11:56:03.541Z,57.68
2017-04-21T11:57:03.514Z,57.77
2017-04-21T11:58:03.502Z,57.7
2017-04-21T11:59:03.473Z,57.68
2017-04-21T12:00:03.456Z,57.8
2017-04-21T12:01:03.436Z,57.9
2017-04-21T12:02:03.415Z,57.61
2017-04-21T12:03:03.394Z,57.13
2017-04-21T12:04:03.078Z,57.42
2017-04-21T12:05:03.350Z,57.7
2017-04-21T12:06:03.334Z,57.13
2017-04-21T12:07:03.328Z,57.13
2017-04-21T12:08:03.289Z,57.13
2017-04-21T12:09:03.274Z,56.75
2017-04-21T12:10:02.977Z,56.77
2017-04-21T12:11:03.240Z,56.77
2017-04-21T12:12:03.433Z,56.97
2017-04-21T12:13:03.195Z,56.39
2017-04-21T12:14:03.173Z,56.1
2017-04-21T12:15:03.157Z,56.3
2017-04-21T12:16:03.184Z,56.1
2017-04-21T12:17:03.119Z,56.2
2017-04-21T12:18:03.143Z,56.3
2017-04-21T12:19:03.096Z,56.1
2017-04-21T12:20:03.055Z,56.3
2017-04-21T12:21:03.039Z,56.2
2017-04-21T12:22:03.024Z,56.3
2017-04-21T12:23:02.999Z,56.59
2017-04-21T12:24:02.981Z,56.2
2017-04-21T12:25:02.957Z,56.01
2017-04-21T12:26:02.938Z,56.39
2017-04-21T12:27:02.919Z,56.01
2017-04-21T12:28:02.901Z,56.1
2017-04-21T12:29:02.878Z,56.39
2017-04-21T12:30:02.857Z,56.59
2017-04-21T12:31:02.855Z,56.49
2017-04-21T12:32:02.520Z,55.91
2017-04-21T12:33:02.810Z,56.39
2017-04-21T12:34:02.783Z,56.2
2017-04-21T12:35:02.763Z,56.1
2017-04-21T12:36:02.746Z,56.77
2017-04-21T12:37:02.731Z,56.59
2017-04-21T12:38:02.753Z,56.2
2017-04-21T12:39:02.693Z,56.49
2017-04-21T12:40:02.668Z,56.39
2017-04-21T12:41:02.648Z,56.49
2017-04-21T12:42:02.629Z,56.2
2017-04-21T12:43:02.609Z,56.1
2017-04-21T12:44:02.586Z,56.2
2017-04-21T12:45:02.567Z,56.1
2017-04-21T12:46:02.544Z,56.1
2017-04-21T12:47:02.528Z,56.1
2017-04-21T12:48:02.556Z,55.53
2017-04-21T12:49:02.494Z,55.82
2017-04-21T12:50:02.471Z,55.27
2017-04-21T12:51:02.447Z,55.24
2017-04-21T12:52:02.434Z,55.46
2017-04-21T12:53:02.415Z,55.46
2017-04-21T12:54:02.392Z,55.18
2017-04-21T12:55:02.372Z,55.08
2017-04-21T12:56:02.351Z,54.6
2017-04-21T12:57:02.330Z,54.7
2017-04-21T12:58:02.315Z,54.22
2017-04-21T12:59:02.294Z,54.34
2017-04-21T13:00:02.280Z,54.32
2017-04-21T13:01:02.263Z,54.41
2017-04-21T13:02:02.234Z,54.41
2017-04-21T13:03:02.214Z,54.32
2017-04-21T13:04:03.202Z,54.41
2017-04-21T13:05:02.180Z,54.41
2017-04-21T13:06:02.159Z,54.41
2017-04-21T13:07:02.142Z,54.7
2017-04-21T13:08:02.132Z,54.79
2017-04-21T13:09:02.173Z,54.7
2017-04-21T13:10:02.081Z,55.27
2017-04-21T13:11:02.065Z,54.99
2017-04-21T13:12:02.082Z,54.79
2017-04-21T13:13:02.034Z,55.08
2017-04-21T13:14:02.007Z,55.36